sensor_id;sensor_type;location;lat;lon;timestamp;temperature;humidity
37268;DHT22;23154;52.542;13.362;2022-09-14T00:01:30;13.70;99.90
37268;DHT22;23154;52.542;13.362;2022-09-14T00:03:59;13.60;99.90
37268;DHT22;23154;52.542;13.362;2022-09-14T00:06:26;13.60;99.90
37268;DHT22;23154;52.542;13.362;2022-09-14T00:08:53;13.60;99.90
37268;DHT22;23154;52.542;13.362;2022-09-14T00:11:21;13.60;99.90
37268;DHT22;23154;52.542;13.362;2022-09-14T00:13:47;13.60;99.90
37268;DHT22;23154;52.542;13.362;2022-09-14T00:16:19;13.60;99.90
37268;DHT22;23154;52.542;13.362;2022-09-14T00:18:54;13.60;99.90
37268;DHT22;23154;52.542;13.362;2022-09-14T00:21:21;13.60;99.90
37268;DHT22;23154;52.542;13.362;2022-09-14T00:23:47;13.50;99.90
37268;DHT22;23154;52.542;13.362;2022-09-14T00:26:15;13.50;99.90
37268;DHT22;23154;52.542;13.362;2022-09-14T00:28:47;13.50;99.90
37268;DHT22;23154;52.542;13.362;2022-09-14T00:31:14;13.60;99.90
37268;DHT22;23154;52.542;13.362;2022-09-14T00:33:44;13.60;99.90
37268;DHT22;23154;52.542;13.362;2022-09-14T00:36:14;13.50;99.90
37268;DHT22;23154;52.542;13.362;2022-09-14T00:38:41;13.50;99.90
37268;DHT22;23154;52.542;13.362;2022-09-14T00:41:10;13.40;99.90
37268;DHT22;23154;52.542;13.362;2022-09-14T00:46:21;13.30;99.90
37268;DHT22;23154;52.542;13.362;2022-09-14T00:48:47;13.20;99.90
37268;DHT22;23154;52.542;13.362;2022-09-14T00:51:13;13.20;99.90
37268;DHT22;23154;52.542;13.362;2022-09-14T00:53:40;13.10;99.90
37268;DHT22;23154;52.542;13.362;2022-09-14T00:56:05;13.10;99.90
37268;DHT22;23154;52.542;13.362;2022-09-14T00:58:31;13.20;99.90
37268;DHT22;23154;52.542;13.362;2022-09-14T01:00:57;13.20;99.90
37268;DHT22;23154;52.542;13.362;2022-09-14T01:03:23;13.20;99.90
37268;DHT22;23154;52.542;13.362;2022-09-14T01:06:15;13.10;99.90
37268;DHT22;23154;52.542;13.362;2022-09-14T01:13:54;13.00;99.90
37268;DHT22;23154;52.542;13.362;2022-09-14T01:16:32;12.90;99.90
37268;DHT22;23154;52.542;13.362;2022-09-14T01:19:09;12.90;99.90
37268;DHT22;23154;52.542;13.362;2022-09-14T01:21:41;12.90;99.90
37268;DHT22;23154;52.542;13.362;2022-09-14T01:24:25;12.90;99.90
37268;DHT22;23154;52.542;13.362;2022-09-14T01:29:39;12.90;99.90
37268;DHT22;23154;52.542;13.362;2022-09-14T01:37:21;12.90;99.90
37268;DHT22;23154;52.542;13.362;2022-09-14T01:39:55;12.80;99.90
37268;DHT22;23154;52.542;13.362;2022-09-14T01:42:26;12.80;99.90
37268;DHT22;23154;52.542;13.362;2022-09-14T01:44:56;12.80;99.90
37268;DHT22;23154;52.542;13.362;2022-09-14T01:47:37;12.70;99.90
37268;DHT22;23154;52.542;13.362;2022-09-14T01:50:15;12.80;99.90
37268;DHT22;23154;52.542;13.362;2022-09-14T01:52:48;12.80;99.90
37268;DHT22;23154;52.542;13.362;2022-09-14T01:55:23;12.80;99.90
37268;DHT22;23154;52.542;13.362;2022-09-14T01:57:54;12.90;99.90
37268;DHT22;23154;52.542;13.362;2022-09-14T02:00:22;12.90;99.90
37268;DHT22;23154;52.542;13.362;2022-09-14T02:02:54;12.80;99.90
37268;DHT22;23154;52.542;13.362;2022-09-14T02:06:29;12.80;99.90
37268;DHT22;23154;52.542;13.362;2022-09-14T02:08:35;12.80;99.90
37268;DHT22;23154;52.542;13.362;2022-09-14T02:11:01;12.90;99.90
37268;DHT22;23154;52.542;13.362;2022-09-14T02:13:27;12.90;99.90
37268;DHT22;23154;52.542;13.362;2022-09-14T02:15:53;13.00;99.90
37268;DHT22;23154;52.542;13.362;2022-09-14T02:18:19;13.00;99.90
37268;DHT22;23154;52.542;13.362;2022-09-14T02:21:01;13.00;99.90
37268;DHT22;23154;52.542;13.362;2022-09-14T02:23:28;13.00;99.90
37268;DHT22;23154;52.542;13.362;2022-09-14T02:25:54;13.00;99.90
37268;DHT22;23154;52.542;13.362;2022-09-14T02:28:20;13.00;99.90
37268;DHT22;23154;52.542;13.362;2022-09-14T02:36:27;13.00;99.90
37268;DHT22;23154;52.542;13.362;2022-09-14T02:39:03;13.00;99.90
37268;DHT22;23154;52.542;13.362;2022-09-14T02:41:44;13.00;99.90
37268;DHT22;23154;52.542;13.362;2022-09-14T02:44:41;13.00;99.90
37268;DHT22;23154;52.542;13.362;2022-09-14T02:47:20;13.00;99.90
37268;DHT22;23154;52.542;13.362;2022-09-14T02:50:00;12.90;99.90
37268;DHT22;23154;52.542;13.362;2022-09-14T02:55:15;12.80;99.90
37268;DHT22;23154;52.542;13.362;2022-09-14T02:58:01;12.80;99.90
37268;DHT22;23154;52.542;13.362;2022-09-14T03:00:28;12.70;99.90
37268;DHT22;23154;52.542;13.362;2022-09-14T03:02:54;12.70;99.90
37268;DHT22;23154;52.542;13.362;2022-09-14T03:05:19;12.70;99.90
37268;DHT22;23154;52.542;13.362;2022-09-14T03:07:45;12.70;99.90
37268;DHT22;23154;52.542;13.362;2022-09-14T03:10:11;12.80;99.90
37268;DHT22;23154;52.542;13.362;2022-09-14T03:12:37;12.80;99.90
37268;DHT22;23154;52.542;13.362;2022-09-14T03:15:04;12.80;99.90
37268;DHT22;23154;52.542;13.362;2022-09-14T03:17:30;12.80;99.90
37268;DHT22;23154;52.542;13.362;2022-09-14T03:19:55;12.80;99.90
37268;DHT22;23154;52.542;13.362;2022-09-14T03:22:21;12.70;99.90
37268;DHT22;23154;52.542;13.362;2022-09-14T03:24:46;12.70;99.90
37268;DHT22;23154;52.542;13.362;2022-09-14T03:27:12;12.70;99.90
37268;DHT22;23154;52.542;13.362;2022-09-14T03:29:37;12.70;99.90
37268;DHT22;23154;52.542;13.362;2022-09-14T03:32:03;12.70;99.90
37268;DHT22;23154;52.542;13.362;2022-09-14T03:34:29;12.60;99.90
37268;DHT22;23154;52.542;13.362;2022-09-14T03:36:54;12.60;99.90
37268;DHT22;23154;52.542;13.362;2022-09-14T03:39:20;12.60;99.90
37268;DHT22;23154;52.542;13.362;2022-09-14T03:41:45;12.60;99.90
37268;DHT22;23154;52.542;13.362;2022-09-14T03:44:11;12.60;99.90
37268;DHT22;23154;52.542;13.362;2022-09-14T03:46:37;12.60;99.90
37268;DHT22;23154;52.542;13.362;2022-09-14T03:49:02;12.60;99.90
37268;DHT22;23154;52.542;13.362;2022-09-14T03:51:28;12.60;99.90
37268;DHT22;23154;52.542;13.362;2022-09-14T03:53:53;12.50;99.90
37268;DHT22;23154;52.542;13.362;2022-09-14T03:56:20;12.60;99.90
37268;DHT22;23154;52.542;13.362;2022-09-14T03:58:48;12.60;99.90
37268;DHT22;23154;52.542;13.362;2022-09-14T04:01:17;12.50;99.90
37268;DHT22;23154;52.542;13.362;2022-09-14T04:03:43;12.60;99.90
37268;DHT22;23154;52.542;13.362;2022-09-14T04:06:09;12.50;99.90
37268;DHT22;23154;52.542;13.362;2022-09-14T04:08:38;12.50;99.90
37268;DHT22;23154;52.542;13.362;2022-09-14T04:11:12;12.50;99.90
37268;DHT22;23154;52.542;13.362;2022-09-14T04:13:38;12.50;99.90
37268;DHT22;23154;52.542;13.362;2022-09-14T04:16:04;12.50;99.90
37268;DHT22;23154;52.542;13.362;2022-09-14T04:18:30;12.50;99.90
37268;DHT22;23154;52.542;13.362;2022-09-14T04:20:57;12.50;99.90
37268;DHT22;23154;52.542;13.362;2022-09-14T04:23:24;12.50;99.90
37268;DHT22;23154;52.542;13.362;2022-09-14T04:25:50;12.60;99.90
37268;DHT22;23154;52.542;13.362;2022-09-14T04:28:16;12.70;99.90
37268;DHT22;23154;52.542;13.362;2022-09-14T04:30:41;12.90;99.90
37268;DHT22;23154;52.542;13.362;2022-09-14T04:33:07;12.80;99.90
37268;DHT22;23154;52.542;13.362;2022-09-14T04:35:33;12.90;99.90
37268;DHT22;23154;52.542;13.362;2022-09-14T04:37:59;12.90;99.90
37268;DHT22;23154;52.542;13.362;2022-09-14T04:40:24;13.00;99.90
37268;DHT22;23154;52.542;13.362;2022-09-14T04:42:53;12.90;99.90
37268;DHT22;23154;52.542;13.362;2022-09-14T04:45:18;12.90;99.90
37268;DHT22;23154;52.542;13.362;2022-09-14T04:47:44;12.80;99.90
37268;DHT22;23154;52.542;13.362;2022-09-14T04:50:09;12.80;99.90
37268;DHT22;23154;52.542;13.362;2022-09-14T04:52:35;12.80;99.90
37268;DHT22;23154;52.542;13.362;2022-09-14T04:55:01;12.90;99.90
37268;DHT22;23154;52.542;13.362;2022-09-14T04:57:27;12.90;99.90
37268;DHT22;23154;52.542;13.362;2022-09-14T04:59:52;13.00;99.90
37268;DHT22;23154;52.542;13.362;2022-09-14T05:02:18;13.00;99.90
37268;DHT22;23154;52.542;13.362;2022-09-14T05:04:44;13.10;99.90
37268;DHT22;23154;52.542;13.362;2022-09-14T05:07:09;13.10;99.90
37268;DHT22;23154;52.542;13.362;2022-09-14T05:09:35;13.10;99.90
37268;DHT22;23154;52.542;13.362;2022-09-14T05:12:01;13.10;99.90
37268;DHT22;23154;52.542;13.362;2022-09-14T05:14:27;13.10;99.90
37268;DHT22;23154;52.542;13.362;2022-09-14T05:16:52;13.10;99.90
37268;DHT22;23154;52.542;13.362;2022-09-14T05:19:18;13.10;99.90
37268;DHT22;23154;52.542;13.362;2022-09-14T05:21:44;13.10;99.90
37268;DHT22;23154;52.542;13.362;2022-09-14T05:24:13;13.10;99.90
37268;DHT22;23154;52.542;13.362;2022-09-14T05:26:39;13.10;99.90
37268;DHT22;23154;52.542;13.362;2022-09-14T05:29:05;13.10;99.90
37268;DHT22;23154;52.542;13.362;2022-09-14T05:31:31;13.10;99.90
37268;DHT22;23154;52.542;13.362;2022-09-14T05:33:58;13.10;99.90
37268;DHT22;23154;52.542;13.362;2022-09-14T05:36:24;13.10;99.90
37268;DHT22;23154;52.542;13.362;2022-09-14T05:38:51;13.10;99.90
37268;DHT22;23154;52.542;13.362;2022-09-14T05:41:16;13.10;99.90
37268;DHT22;23154;52.542;13.362;2022-09-14T05:43:42;13.10;99.90
37268;DHT22;23154;52.542;13.362;2022-09-14T05:46:16;13.00;99.90
37268;DHT22;23154;52.542;13.362;2022-09-14T05:48:45;13.10;99.90
37268;DHT22;23154;52.542;13.362;2022-09-14T05:51:19;13.10;99.90
37268;DHT22;23154;52.542;13.362;2022-09-14T05:53:53;13.10;99.90
37268;DHT22;23154;52.542;13.362;2022-09-14T05:56:20;13.10;99.90
37268;DHT22;23154;52.542;13.362;2022-09-14T05:58:46;13.20;99.90
37268;DHT22;23154;52.542;13.362;2022-09-14T06:01:23;13.20;99.90
37268;DHT22;23154;52.542;13.362;2022-09-14T06:03:49;13.20;99.90
37268;DHT22;23154;52.542;13.362;2022-09-14T06:06:18;13.30;99.90
37268;DHT22;23154;52.542;13.362;2022-09-14T06:08:44;13.30;99.90
37268;DHT22;23154;52.542;13.362;2022-09-14T06:11:12;13.20;99.90
37268;DHT22;23154;52.542;13.362;2022-09-14T06:13:39;13.30;99.90
37268;DHT22;23154;52.542;13.362;2022-09-14T06:16:10;13.30;99.90
37268;DHT22;23154;52.542;13.362;2022-09-14T06:18:37;13.40;99.90
37268;DHT22;23154;52.542;13.362;2022-09-14T06:21:04;13.40;99.90
37268;DHT22;23154;52.542;13.362;2022-09-14T06:23:31;13.60;99.90
37268;DHT22;23154;52.542;13.362;2022-09-14T06:26:02;13.70;99.90
37268;DHT22;23154;52.542;13.362;2022-09-14T06:28:28;13.80;99.90
37268;DHT22;23154;52.542;13.362;2022-09-14T06:30:54;13.90;99.90
37268;DHT22;23154;52.542;13.362;2022-09-14T06:33:20;14.10;99.90
37268;DHT22;23154;52.542;13.362;2022-09-14T06:35:57;14.20;99.90
37268;DHT22;23154;52.542;13.362;2022-09-14T06:38:23;14.40;99.90
37268;DHT22;23154;52.542;13.362;2022-09-14T06:40:50;14.50;99.90
37268;DHT22;23154;52.542;13.362;2022-09-14T06:43:16;14.60;99.90
37268;DHT22;23154;52.542;13.362;2022-09-14T06:45:42;14.60;99.90
37268;DHT22;23154;52.542;13.362;2022-09-14T06:48:07;14.70;99.90
37268;DHT22;23154;52.542;13.362;2022-09-14T06:50:33;14.70;99.90
37268;DHT22;23154;52.542;13.362;2022-09-14T06:52:59;14.70;99.90
37268;DHT22;23154;52.542;13.362;2022-09-14T06:55:25;14.70;99.90
37268;DHT22;23154;52.542;13.362;2022-09-14T06:57:51;14.70;99.90
37268;DHT22;23154;52.542;13.362;2022-09-14T07:00:17;14.80;99.90
37268;DHT22;23154;52.542;13.362;2022-09-14T07:02:43;15.00;99.90
37268;DHT22;23154;52.542;13.362;2022-09-14T07:05:10;15.00;99.90
37268;DHT22;23154;52.542;13.362;2022-09-14T07:07:35;15.00;99.90
37268;DHT22;23154;52.542;13.362;2022-09-14T07:10:01;15.00;99.90
37268;DHT22;23154;52.542;13.362;2022-09-14T07:12:27;15.10;99.90
37268;DHT22;23154;52.542;13.362;2022-09-14T07:14:52;14.90;99.90
37268;DHT22;23154;52.542;13.362;2022-09-14T07:17:19;14.80;99.90
37268;DHT22;23154;52.542;13.362;2022-09-14T07:19:44;14.90;99.90
37268;DHT22;23154;52.542;13.362;2022-09-14T07:22:10;14.90;99.90
37268;DHT22;23154;52.542;13.362;2022-09-14T07:24:35;14.90;99.90
37268;DHT22;23154;52.542;13.362;2022-09-14T07:27:01;15.00;99.90
37268;DHT22;23154;52.542;13.362;2022-09-14T07:29:27;15.30;99.90
37268;DHT22;23154;52.542;13.362;2022-09-14T07:31:53;15.40;99.90
37268;DHT22;23154;52.542;13.362;2022-09-14T07:34:19;15.60;99.90
37268;DHT22;23154;52.542;13.362;2022-09-14T07:36:44;15.70;99.90
37268;DHT22;23154;52.542;13.362;2022-09-14T07:39:12;15.80;99.90
37268;DHT22;23154;52.542;13.362;2022-09-14T07:41:38;15.90;99.90
37268;DHT22;23154;52.542;13.362;2022-09-14T07:44:06;16.10;99.90
37268;DHT22;23154;52.542;13.362;2022-09-14T07:46:37;16.40;99.90
37268;DHT22;23154;52.542;13.362;2022-09-14T07:49:04;16.30;99.90
37268;DHT22;23154;52.542;13.362;2022-09-14T07:51:30;16.60;99.90
37268;DHT22;23154;52.542;13.362;2022-09-14T07:53:57;16.70;99.90
37268;DHT22;23154;52.542;13.362;2022-09-14T07:56:24;16.90;99.90
37268;DHT22;23154;52.542;13.362;2022-09-14T07:58:52;17.00;99.90
37268;DHT22;23154;52.542;13.362;2022-09-14T08:01:18;17.00;99.90
37268;DHT22;23154;52.542;13.362;2022-09-14T08:03:44;17.10;99.90
37268;DHT22;23154;52.542;13.362;2022-09-14T08:06:16;17.20;99.90
37268;DHT22;23154;52.542;13.362;2022-09-14T08:08:44;17.30;99.90
37268;DHT22;23154;52.542;13.362;2022-09-14T08:11:12;17.40;99.90
37268;DHT22;23154;52.542;13.362;2022-09-14T08:13:41;17.50;99.90
37268;DHT22;23154;52.542;13.362;2022-09-14T08:16:08;17.30;99.90
37268;DHT22;23154;52.542;13.362;2022-09-14T08:18:35;17.40;99.90
37268;DHT22;23154;52.542;13.362;2022-09-14T08:21:19;17.50;99.90
37268;DHT22;23154;52.542;13.362;2022-09-14T08:23:45;17.50;99.90
37268;DHT22;23154;52.542;13.362;2022-09-14T08:26:16;17.50;99.90
37268;DHT22;23154;52.542;13.362;2022-09-14T08:28:43;17.60;99.90
37268;DHT22;23154;52.542;13.362;2022-09-14T08:31:11;17.80;99.90
37268;DHT22;23154;52.542;13.362;2022-09-14T08:33:43;18.00;99.90
37268;DHT22;23154;52.542;13.362;2022-09-14T08:36:12;18.00;99.90
37268;DHT22;23154;52.542;13.362;2022-09-14T08:38:38;18.30;99.90
37268;DHT22;23154;52.542;13.362;2022-09-14T08:51:55;18.70;99.90
37268;DHT22;23154;52.542;13.362;2022-09-14T08:54:21;19.00;99.90
37268;DHT22;23154;52.542;13.362;2022-09-14T08:57:34;18.90;99.90
37268;DHT22;23154;52.542;13.362;2022-09-14T09:00:02;18.60;99.90
37268;DHT22;23154;52.542;13.362;2022-09-14T09:02:39;18.70;99.90
37268;DHT22;23154;52.542;13.362;2022-09-14T09:05:45;18.90;99.90
37268;DHT22;23154;52.542;13.362;2022-09-14T09:08:30;18.90;99.90
37268;DHT22;23154;52.542;13.362;2022-09-14T09:10:58;18.90;99.90
37268;DHT22;23154;52.542;13.362;2022-09-14T09:13:29;18.70;99.90
37268;DHT22;23154;52.542;13.362;2022-09-14T09:16:03;18.60;99.90
37268;DHT22;23154;52.542;13.362;2022-09-14T09:19:00;18.50;99.90
37268;DHT22;23154;52.542;13.362;2022-09-14T09:21:41;18.50;99.90
37268;DHT22;23154;52.542;13.362;2022-09-14T09:24:31;18.60;99.90
37268;DHT22;23154;52.542;13.362;2022-09-14T09:26:59;18.40;99.90
37268;DHT22;23154;52.542;13.362;2022-09-14T09:29:25;18.40;99.90
37268;DHT22;23154;52.542;13.362;2022-09-14T09:31:53;18.30;99.90
37268;DHT22;23154;52.542;13.362;2022-09-14T09:34:27;18.30;99.90
37268;DHT22;23154;52.542;13.362;2022-09-14T09:36:53;18.30;99.90
37268;DHT22;23154;52.542;13.362;2022-09-14T09:39:22;18.30;99.90
37268;DHT22;23154;52.542;13.362;2022-09-14T09:42:00;18.40;99.90
37268;DHT22;23154;52.542;13.362;2022-09-14T09:44:26;18.40;99.90
37268;DHT22;23154;52.542;13.362;2022-09-14T09:46:55;18.40;99.90
37268;DHT22;23154;52.542;13.362;2022-09-14T09:49:32;18.50;99.90
37268;DHT22;23154;52.542;13.362;2022-09-14T09:52:25;18.50;99.90
37268;DHT22;23154;52.542;13.362;2022-09-14T09:54:52;18.60;99.90
37268;DHT22;23154;52.542;13.362;2022-09-14T09:57:32;18.60;99.90
37268;DHT22;23154;52.542;13.362;2022-09-14T10:00:09;18.80;99.90
37268;DHT22;23154;52.542;13.362;2022-09-14T10:02:36;19.00;99.90
37268;DHT22;23154;52.542;13.362;2022-09-14T10:05:17;19.00;99.90
37268;DHT22;23154;52.542;13.362;2022-09-14T10:07:55;19.10;99.90
37268;DHT22;23154;52.542;13.362;2022-09-14T10:10:41;19.20;99.90
37268;DHT22;23154;52.542;13.362;2022-09-14T10:13:26;19.10;99.90
37268;DHT22;23154;52.542;13.362;2022-09-14T10:15:53;18.90;99.90
37268;DHT22;23154;52.542;13.362;2022-09-14T10:18:29;18.90;99.90
37268;DHT22;23154;52.542;13.362;2022-09-14T10:23:27;19.00;99.90
37268;DHT22;23154;52.542;13.362;2022-09-14T10:26:15;19.10;99.90
37268;DHT22;23154;52.542;13.362;2022-09-14T10:28:44;19.30;99.90
37268;DHT22;23154;52.542;13.362;2022-09-14T10:33:36;19.50;99.90
37268;DHT22;23154;52.542;13.362;2022-09-14T10:36:08;19.40;99.90
37268;DHT22;23154;52.542;13.362;2022-09-14T10:50:16;20.50;99.90
37268;DHT22;23154;52.542;13.362;2022-09-14T10:56:16;20.10;99.90
37268;DHT22;23154;52.542;13.362;2022-09-14T11:02:08;20.00;99.90
37268;DHT22;23154;52.542;13.362;2022-09-14T11:05:04;20.40;99.90
37268;DHT22;23154;52.542;13.362;2022-09-14T11:13:25;20.00;99.90
37268;DHT22;23154;52.542;13.362;2022-09-14T11:18:51;19.90;99.90
37268;DHT22;23154;52.542;13.362;2022-09-14T11:24:05;20.20;99.90
37268;DHT22;23154;52.542;13.362;2022-09-14T11:26:38;20.10;99.90
37268;DHT22;23154;52.542;13.362;2022-09-14T11:29:23;20.30;99.90
37268;DHT22;23154;52.542;13.362;2022-09-14T11:34:38;19.70;99.90
37268;DHT22;23154;52.542;13.362;2022-09-14T11:37:13;19.70;99.90
37268;DHT22;23154;52.542;13.362;2022-09-14T11:39:44;19.90;99.90
37268;DHT22;23154;52.542;13.362;2022-09-14T11:44:42;20.30;99.90
37268;DHT22;23154;52.542;13.362;2022-09-14T11:47:17;20.20;99.90
37268;DHT22;23154;52.542;13.362;2022-09-14T11:49:57;20.20;99.90
37268;DHT22;23154;52.542;13.362;2022-09-14T11:52:29;20.20;99.90
37268;DHT22;23154;52.542;13.362;2022-09-14T11:54:55;20.30;99.90
37268;DHT22;23154;52.542;13.362;2022-09-14T11:57:29;20.60;99.90
37268;DHT22;23154;52.542;13.362;2022-09-14T12:00:00;21.00;99.90
37268;DHT22;23154;52.542;13.362;2022-09-14T12:02:42;21.00;99.90
37268;DHT22;23154;52.542;13.362;2022-09-14T12:12:43;20.20;99.90
37268;DHT22;23154;52.542;13.362;2022-09-14T12:17:47;20.20;99.90
37268;DHT22;23154;52.542;13.362;2022-09-14T12:36:06;20.10;99.90
37268;DHT22;23154;52.542;13.362;2022-09-14T12:38:39;20.30;99.90
37268;DHT22;23154;52.542;13.362;2022-09-14T12:46:04;20.40;99.90
37268;DHT22;23154;52.542;13.362;2022-09-14T12:59:19;20.90;99.90
37268;DHT22;23154;52.542;13.362;2022-09-14T13:01:53;21.00;99.90
37268;DHT22;23154;52.542;13.362;2022-09-14T13:04:28;21.00;99.90
37268;DHT22;23154;52.542;13.362;2022-09-14T13:06:55;21.00;99.90
37268;DHT22;23154;52.542;13.362;2022-09-14T13:09:26;21.20;99.90
37268;DHT22;23154;52.542;13.362;2022-09-14T13:12:11;21.00;99.90
37268;DHT22;23154;52.542;13.362;2022-09-14T13:14:51;20.70;99.90
37268;DHT22;23154;52.542;13.362;2022-09-14T13:17:17;20.40;99.90
37268;DHT22;23154;52.542;13.362;2022-09-14T13:19:59;20.00;99.90
37268;DHT22;23154;52.542;13.362;2022-09-14T13:22:27;20.30;99.90
37268;DHT22;23154;52.542;13.362;2022-09-14T13:24:54;20.10;99.90
37268;DHT22;23154;52.542;13.362;2022-09-14T13:27:27;20.00;99.90
37268;DHT22;23154;52.542;13.362;2022-09-14T13:32:41;19.90;99.90
37268;DHT22;23154;52.542;13.362;2022-09-14T13:35:16;19.90;99.90
37268;DHT22;23154;52.542;13.362;2022-09-14T13:37:42;20.00;99.90
37268;DHT22;23154;52.542;13.362;2022-09-14T13:40:08;19.90;99.90
37268;DHT22;23154;52.542;13.362;2022-09-14T13:42:34;19.80;99.90
37268;DHT22;23154;52.542;13.362;2022-09-14T13:45:00;20.10;99.90
37268;DHT22;23154;52.542;13.362;2022-09-14T13:47:25;20.20;99.90
37268;DHT22;23154;52.542;13.362;2022-09-14T13:49:52;20.30;99.90
37268;DHT22;23154;52.542;13.362;2022-09-14T13:54:53;20.20;99.90
37268;DHT22;23154;52.542;13.362;2022-09-14T13:57:22;20.30;99.90
37268;DHT22;23154;52.542;13.362;2022-09-14T14:00:24;20.20;99.90
37268;DHT22;23154;52.542;13.362;2022-09-14T14:02:52;20.40;99.90
37268;DHT22;23154;52.542;13.362;2022-09-14T14:07:56;20.10;99.90
37268;DHT22;23154;52.542;13.362;2022-09-14T14:10:44;19.80;99.90
37268;DHT22;23154;52.542;13.362;2022-09-14T14:13:11;19.60;99.90
37268;DHT22;23154;52.542;13.362;2022-09-14T14:15:49;19.70;99.90
37268;DHT22;23154;52.542;13.362;2022-09-14T14:18:30;19.50;99.90
37268;DHT22;23154;52.542;13.362;2022-09-14T14:21:03;19.30;99.90
37268;DHT22;23154;52.542;13.362;2022-09-14T14:23:29;19.20;99.90
37268;DHT22;23154;52.542;13.362;2022-09-14T14:26:24;19.20;99.90
37268;DHT22;23154;52.542;13.362;2022-09-14T14:28:52;19.00;99.90
37268;DHT22;23154;52.542;13.362;2022-09-14T14:31:19;18.80;99.90
37268;DHT22;23154;52.542;13.362;2022-09-14T14:33:48;18.80;99.90
37268;DHT22;23154;52.542;13.362;2022-09-14T14:36:14;18.80;99.90
37268;DHT22;23154;52.542;13.362;2022-09-14T14:38:40;18.80;99.90
37268;DHT22;23154;52.542;13.362;2022-09-14T14:41:12;18.90;99.90
37268;DHT22;23154;52.542;13.362;2022-09-14T14:43:39;19.00;99.90
37268;DHT22;23154;52.542;13.362;2022-09-14T14:46:06;19.00;99.90
37268;DHT22;23154;52.542;13.362;2022-09-14T14:48:31;18.90;99.90
37268;DHT22;23154;52.542;13.362;2022-09-14T14:50:57;18.80;99.90
37268;DHT22;23154;52.542;13.362;2022-09-14T14:53:24;18.80;99.90
37268;DHT22;23154;52.542;13.362;2022-09-14T14:55:50;18.80;99.90
37268;DHT22;23154;52.542;13.362;2022-09-14T14:58:17;18.80;99.90
37268;DHT22;23154;52.542;13.362;2022-09-14T15:00:43;18.80;99.90
37268;DHT22;23154;52.542;13.362;2022-09-14T15:03:09;18.80;99.90
37268;DHT22;23154;52.542;13.362;2022-09-14T15:05:43;18.70;99.90
37268;DHT22;23154;52.542;13.362;2022-09-14T15:08:14;18.50;99.90
37268;DHT22;23154;52.542;13.362;2022-09-14T15:10:40;18.50;99.90
37268;DHT22;23154;52.542;13.362;2022-09-14T15:13:07;18.50;99.90
37268;DHT22;23154;52.542;13.362;2022-09-14T15:15:32;18.50;99.90
37268;DHT22;23154;52.542;13.362;2022-09-14T15:17:58;18.50;99.90
37268;DHT22;23154;52.542;13.362;2022-09-14T15:20:24;18.50;99.90
37268;DHT22;23154;52.542;13.362;2022-09-14T15:22:51;18.50;99.90
37268;DHT22;23154;52.542;13.362;2022-09-14T15:25:18;18.50;99.90
37268;DHT22;23154;52.542;13.362;2022-09-14T15:27:45;18.40;99.90
37268;DHT22;23154;52.542;13.362;2022-09-14T15:30:12;18.30;99.90
37268;DHT22;23154;52.542;13.362;2022-09-14T15:32:39;18.30;99.90
37268;DHT22;23154;52.542;13.362;2022-09-14T15:35:06;18.30;99.90
37268;DHT22;23154;52.542;13.362;2022-09-14T15:37:33;18.40;99.90
37268;DHT22;23154;52.542;13.362;2022-09-14T15:39:59;18.40;99.90
37268;DHT22;23154;52.542;13.362;2022-09-14T15:42:24;18.30;99.90
37268;DHT22;23154;52.542;13.362;2022-09-14T15:44:53;18.20;99.90
37268;DHT22;23154;52.542;13.362;2022-09-14T15:47:19;18.20;99.90
37268;DHT22;23154;52.542;13.362;2022-09-14T15:49:45;18.20;99.90
37268;DHT22;23154;52.542;13.362;2022-09-14T15:52:12;18.10;99.90
37268;DHT22;23154;52.542;13.362;2022-09-14T15:54:38;18.20;99.90
37268;DHT22;23154;52.542;13.362;2022-09-14T15:57:06;18.20;99.90
37268;DHT22;23154;52.542;13.362;2022-09-14T15:59:32;18.10;99.90
37268;DHT22;23154;52.542;13.362;2022-09-14T16:01:58;18.10;99.90
37268;DHT22;23154;52.542;13.362;2022-09-14T16:04:24;18.10;99.90
37268;DHT22;23154;52.542;13.362;2022-09-14T16:06:49;18.10;99.90
37268;DHT22;23154;52.542;13.362;2022-09-14T16:09:17;18.00;99.90
37268;DHT22;23154;52.542;13.362;2022-09-14T16:11:43;17.90;99.90
37268;DHT22;23154;52.542;13.362;2022-09-14T16:14:10;17.90;99.90
37268;DHT22;23154;52.542;13.362;2022-09-14T16:16:37;17.80;99.90
37268;DHT22;23154;52.542;13.362;2022-09-14T16:19:21;17.80;99.90
37268;DHT22;23154;52.542;13.362;2022-09-14T16:21:47;17.80;99.90
37268;DHT22;23154;52.542;13.362;2022-09-14T16:24:16;17.80;99.90
37268;DHT22;23154;52.542;13.362;2022-09-14T16:26:43;17.70;99.90
37268;DHT22;23154;52.542;13.362;2022-09-14T16:29:11;17.70;99.90
37268;DHT22;23154;52.542;13.362;2022-09-14T16:31:38;17.80;99.90
37268;DHT22;23154;52.542;13.362;2022-09-14T16:34:06;17.70;99.90
37268;DHT22;23154;52.542;13.362;2022-09-14T16:36:36;17.70;99.90
37268;DHT22;23154;52.542;13.362;2022-09-14T16:39:05;17.60;99.90
37268;DHT22;23154;52.542;13.362;2022-09-14T16:41:31;17.60;99.90
37268;DHT22;23154;52.542;13.362;2022-09-14T16:43:59;17.50;99.90
37268;DHT22;23154;52.542;13.362;2022-09-14T16:46:27;17.40;99.90
37268;DHT22;23154;52.542;13.362;2022-09-14T16:48:56;17.30;99.90
37268;DHT22;23154;52.542;13.362;2022-09-14T16:51:40;17.30;99.90
37268;DHT22;23154;52.542;13.362;2022-09-14T16:54:06;17.20;99.90
37268;DHT22;23154;52.542;13.362;2022-09-14T16:56:35;17.10;99.90
37268;DHT22;23154;52.542;13.362;2022-09-14T16:59:03;17.00;99.90
37268;DHT22;23154;52.542;13.362;2022-09-14T17:01:30;16.90;99.90
37268;DHT22;23154;52.542;13.362;2022-09-14T17:03:59;16.90;99.90
37268;DHT22;23154;52.542;13.362;2022-09-14T17:06:29;16.90;99.90
37268;DHT22;23154;52.542;13.362;2022-09-14T17:08:59;16.80;99.90
37268;DHT22;23154;52.542;13.362;2022-09-14T17:11:27;16.80;99.90
37268;DHT22;23154;52.542;13.362;2022-09-14T17:13:53;16.80;99.90
37268;DHT22;23154;52.542;13.362;2022-09-14T17:16:20;16.80;99.90
37268;DHT22;23154;52.542;13.362;2022-09-14T17:18:47;16.80;99.90
37268;DHT22;23154;52.542;13.362;2022-09-14T17:21:22;16.80;99.90
37268;DHT22;23154;52.542;13.362;2022-09-14T17:23:49;16.70;99.90
37268;DHT22;23154;52.542;13.362;2022-09-14T17:26:16;16.70;99.90
37268;DHT22;23154;52.542;13.362;2022-09-14T17:28:43;16.60;99.90
37268;DHT22;23154;52.542;13.362;2022-09-14T17:31:10;16.60;99.90
37268;DHT22;23154;52.542;13.362;2022-09-14T17:33:37;16.60;99.90
37268;DHT22;23154;52.542;13.362;2022-09-14T17:36:04;16.50;99.90